Flight Track Log - Related Links

Times and Time Zones

All times are in EDT time to prevent confusion due to time zone crossing. See the N1944E flight status page for this flight to view local times or setup timezone preferences in your user account.

Time Position Orientation Groundspeed Altitude Reporting Facility
EDT Latitude Longitude Course Direction KTS MPH feet Rate Location/Type
Fri 08:09:34 AM 45.8525 -108.5156 62° Northeast 143 165 5,100  Level Salt Center
Fri 08:10:34 AM 45.8758 -108.4661 56° Northeast 151 174 5,700 595 Climbing Salt Center
Fri 08:11:35 AM 45.9003 -108.4161 55° Northeast 155 178 6,300 694 Climbing Salt Center
Fri 08:12:35 AM 45.9269 -108.3594 56° Northeast 158 182 7,100 694 Climbing Salt Center
Fri 08:13:36 AM 45.9514 -108.3056 57° Northeast 162 186 7,700 595 Climbing Salt Center
Fri 08:14:36 AM 45.9758 -108.2522 57° Northeast 162 186 8,300 645 Climbing Salt Center
Fri 08:15:37 AM 46.0014 -108.2000 55° Northeast 162 186 9,000 744 Climbing Salt Center
Fri 08:16:37 AM 46.0247 -108.1458 58° Northeast 161 185 9,800 744 Climbing Salt Center
Fri 08:17:38 AM 46.0508 -108.0883 57° Northeast 160 184 10,500 694 Climbing Salt Center
Fri 08:18:38 AM 46.0758 -108.0344 56° Northeast 163 188 11,200 645 Climbing Salt Center
Fri 08:19:39 AM 46.1003 -107.9797 57° Northeast 164 189 11,800 595 Climbing Salt Center
Fri 08:20:39 AM 46.1264 -107.9228 56° Northeast 172 198 12,400 645 Climbing Salt Center
Fri 08:21:40 AM 46.1517 -107.8589 60° Northeast 171 197 13,100 639 Climbing Salt Center
Fri 08:22:41 AM 46.1761 -107.7997 59° Northeast 173 199 13,700 645 Climbing Salt Center
Fri 08:23:41 AM 46.2008 -107.7403 59° Northeast 172 198 14,400 645 Climbing Salt Center
Fri 08:24:42 AM 46.2275 -107.6836 56° Northeast 172 198 15,000 347 Climbing Salt Center
Fri 08:25:42 AM 46.2564 -107.6189 57° Northeast 193 222 15,100 50 Climbing Salt Center
Fri 08:26:43 AM 46.2892 -107.5428 58° Northeast 205 236 15,100  Level Salt Center
Fri 08:27:44 AM 46.3186 -107.4781 57° Northeast 200 230 15,100  Level Salt Center
Fri 08:28:44 AM 46.3492 -107.4106 57° Northeast 199 229 15,100  Level Salt Center
Fri 08:29:45 AM 46.3808 -107.3444 55° Northeast 201 231 15,100  Level Salt Center
Fri 08:30:45 AM 46.4125 -107.2764 56° Northeast 202 232 15,100  Level Salt Center
Fri 08:31:46 AM 46.4422 -107.2086 58° Northeast 202 232 15,100  Level Salt Center
Fri 08:32:47 AM 46.4725 -107.1375 58° Northeast 203 234 15,100 -50 Level Salt Center
Fri 08:33:47 AM 46.5028 -107.0697 57° Northeast 203 234 15,000 -50 Descending Salt Center
Fri 08:34:48 AM 46.5317 -106.9989 59° Northeast 203 234 15,000  Level Salt Center
Fri 08:35:48 AM 46.5611 -106.9294 58° Northeast 203 234 15,000  Level Salt Center
Fri 08:36:49 AM 46.5908 -106.8597 58° Northeast 203 234 15,000  Level Salt Center
Fri 08:37:50 AM 46.6206 -106.7967 56° Northeast 199 229 15,000  Level Salt Center
Fri 08:38:50 AM 46.6503 -106.7317 56° Northeast 196 226 15,000  Level Salt Center
Fri 08:39:51 AM 46.6750 -106.6619 63° Northeast 195 224 15,000  Level Salt Center
Fri 08:40:52 AM 46.7019 -106.5925 60° Northeast 195 224 15,000  Level Salt Center
Fri 08:41:52 AM 46.7317 -106.5250 57° Northeast 196 226 15,000  Level Salt Center
Fri 08:42:53 AM 46.7631 -106.4578 56° Northeast 199 229 15,000  Level Salt Center
Fri 08:43:54 AM 46.7928 -106.3903 57° Northeast 199 229 15,000  Level Salt Center
Fri 08:44:55 AM 46.8214 -106.3206 59° Northeast 199 229 15,000  Level Salt Center
Fri 08:45:55 AM 46.8572 -106.2381 58° Northeast 200 230 15,000  Level Salt Center
Fri 08:46:56 AM 46.8878 -106.1692 57° Northeast 201 231 15,000  Level Salt Center
Fri 08:47:57 AM 46.9186 -106.1011 56° Northeast 202 232 15,000  Level Salt Center
Fri 08:48:58 AM 46.9469 -106.0308 59° Northeast 202 232 15,000  Level Salt Center
Fri 08:49:58 AM 46.9756 -105.9608 59° Northeast 201 231 15,000  Level Salt Center
Fri 08:50:59 AM 47.0039 -105.8917 59° Northeast 200 230 15,000  Level Salt Center
Fri 08:52:00 AM 47.0336 -105.8219 58° Northeast 201 231 15,000  Level Salt Center
Fri 08:53:01 AM 47.0636 -105.7525 58° Northeast 201 231 15,000  Level Salt Center
Fri 08:54:01 AM 47.0936 -105.6825 58° Northeast 202 232 15,000  Level Salt Center
Fri 08:55:02 AM 47.1228 -105.6111 59° Northeast 203 234 15,000  Level Salt Center
Fri 08:56:03 AM 47.1525 -105.5406 58° Northeast 203 234 15,000 -49 Level Salt Center
Fri 08:57:04 AM 47.1819 -105.4700 58° Northeast 203 234 14,900 -298 Descending Salt Center
Fri 08:58:04 AM 47.2103 -105.3947 61° Northeast 206 237 14,400 -545 Descending Salt Center
Fri 08:59:05 AM 47.2417 -105.3175 59° Northeast 213 245 13,800 -639 Descending Salt Center
Fri 09:00:06 AM 47.2744 -105.2392 58° Northeast 219 252 13,100 -885 Descending Salt Center
Fri 09:01:07 AM 47.3167 -105.1447 57° Northeast 225 259 12,000 -934 Descending Salt Center
Fri 09:02:08 AM 47.3494 -105.0672 58° Northeast 226 260 11,200 -590 Descending Salt Center
Fri 09:03:09 AM 47.3806 -104.9881 60° Northeast 224 258 10,800 -541 Descending Salt Center
Fri 09:04:10 AM 47.4122 -104.9097 59° Northeast 224 258 10,100 -744 Descending Salt Center
Fri 09:05:10 AM 47.4425 -104.8342 59° Northeast 220 253 9,300 -744 Descending Salt Center
Fri 09:06:11 AM 47.4744 -104.7617 57° Northeast 215 247 8,600 -787 Descending Salt Center
Fri 09:07:12 AM 47.5075 -104.6906 55° Northeast 212 244 7,700 -836 Descending Salt Center
Fri 09:08:13 AM 47.5364 -104.6178 60° Northeast 209 241 6,900 -787 Descending Salt Center
Fri 09:09:14 AM 47.5639 -104.5464 60° Northeast 205 236 6,100 -787 Descending Salt Center

Login

Don't have an account? Register now (free) for customized features, flight alerts, and more!